Watson, Canada
Current Conditions -  °F | °C
As of 4:00 PM on Friday 19 Dec 2014 (Local Time) from CYBU Reporting Station
Overcast Overcast  
Wind Chill: 18°   Ceiling: 300
Heat Index: 18°   Visibility: 9mi
Dew Point: 18°   Wind: 3mph
Humidity: 100%   Direction: 200°SSW
Pressure: 29.96"   Gusts: NA
Location:  52.13°N, 104.53°W
Report Text: CYBU 192200Z AUTO 20003KT 9SM OVC003 M08/M08 A2996 RMK SLP174
Loading
Personal Weather Stations






























Interactive Weather Map New forecast layout! Learn more

10-Day Weather Forecast

Advertisements
Track Severe Weather on mobile